createdAt,value
2019-03-04T00:05:14.119Z,98672.64
2019-03-04T00:07:44.227Z,98674.81
2019-03-04T00:10:14.333Z,98667.81
2019-03-04T00:12:44.420Z,98671.80
2019-03-04T00:15:14.534Z,98667.33
2019-03-04T00:18:05.112Z,98670.47
2019-03-04T00:20:35.209Z,98663.58
2019-03-04T00:23:05.329Z,98663.70
2019-03-04T00:25:35.467Z,98654.27
2019-03-04T00:28:05.697Z,98660.44
2019-03-04T00:30:35.781Z,98653.42
2019-03-04T00:33:17.980Z,98657.41
2019-03-04T00:35:48.094Z,98649.07
2019-03-04T00:38:18.232Z,98651.33
2019-03-04T00:40:48.336Z,98644.20
2019-03-04T00:43:18.668Z,98637.31
2019-03-04T00:45:48.765Z,98634.91
2019-03-04T00:48:18.897Z,98639.61
2019-03-04T00:50:48.996Z,98640.86
2019-03-04T00:53:19.119Z,98636.27
2019-03-04T00:55:49.211Z,98632.04
2019-03-04T00:58:19.376Z,98630.11
2019-03-04T01:00:49.486Z,98622.02
2019-03-04T01:03:19.587Z,98617.87
2019-03-04T01:05:49.694Z,98614.00
2019-03-04T01:08:19.853Z,98615.33
2019-03-04T01:11:01.850Z,98603.25
2019-03-04T01:13:44.104Z,98601.31
2019-03-04T01:16:14.181Z,98594.67
2019-03-04T01:18:44.287Z,98592.50
2019-03-04T01:21:14.414Z,98591.05
2019-03-04T01:23:44.616Z,98594.67
2019-03-04T01:26:14.771Z,98591.29
2019-03-04T01:28:44.929Z,98587.55
2019-03-04T01:31:15.036Z,98583.92
2019-03-04T01:33:56.777Z,98578.25
2019-03-04T01:36:26.872Z,98575.95
2019-03-04T01:38:56.996Z,98580.55
2019-03-04T01:41:27.086Z,98573.05
2019-03-04T01:43:57.194Z,98574.14
2019-03-04T01:46:27.328Z,98575.95
2019-03-04T01:48:57.452Z,98570.60
2019-03-04T01:51:27.547Z,98566.13
2019-03-04T01:53:57.657Z,98568.65
2019-03-04T01:56:27.746Z,98574.45
2019-03-04T01:58:57.843Z,98559.85
2019-03-04T02:02:06.037Z,98566.38
2019-03-04T02:04:36.140Z,98562.63
2019-03-04T02:10:37.035Z,98559.59
2019-03-04T02:13:07.130Z,98560.60
2019-03-04T02:15:37.226Z,98554.67
2019-03-04T02:18:07.318Z,98556.66
2019-03-04T02:20:58.149Z,98552.33
2019-03-04T02:23:28.246Z,98464.29
2019-03-04T02:26:22.297Z,98546.86
2019-03-04T02:28:52.474Z,98549.78
2019-03-04T02:31:24.212Z,98549.72
2019-03-04T02:33:54.313Z,98544.59
2019-03-04T02:36:24.476Z,98544.42
2019-03-04T02:38:54.581Z,98545.87
2019-03-04T02:41:24.804Z,98542.55
2019-03-04T02:46:43.969Z,98538.32
2019-03-04T02:49:14.091Z,98535.25
2019-03-04T02:51:44.210Z,98523.47
2019-03-04T02:54:15.943Z,98524.30
2019-03-04T02:56:46.051Z,98519.06
2019-03-04T02:59:16.140Z,98519.80
2019-03-04T03:01:46.251Z,98519.37
2019-03-04T03:04:16.358Z,98521.80
2019-03-04T03:06:46.465Z,98519.78
2019-03-04T03:09:16.581Z,98509.55
2019-03-04T03:11:46.701Z,98510.92
2019-03-04T03:14:16.835Z,98506.24
2019-03-04T03:16:48.550Z,98505.27
2019-03-04T03:19:18.653Z,98504.23
2019-03-04T03:21:48.757Z,98501.56
2019-03-04T03:24:18.858Z,98493.73
2019-03-04T03:29:30.997Z,98494.36
2019-03-04T03:32:01.130Z,98495.31
2019-03-04T03:34:31.207Z,98499.54
2019-03-04T03:37:01.331Z,98497.27
2019-03-04T03:39:31.421Z,98486.49
2019-03-04T03:42:01.522Z,98491.91
2019-03-04T03:44:31.604Z,98492.91
2019-03-04T03:47:01.717Z,98488.66
2019-03-04T03:49:31.797Z,98489.98
2019-03-04T03:52:01.927Z,98486.88
2019-03-04T03:54:51.134Z,98483.70
2019-03-04T03:57:22.849Z,98479.36
2019-03-04T03:59:52.990Z,98479.86
2019-03-04T04:02:23.096Z,98480.03
2019-03-04T04:04:53.208Z,98472.84
2019-03-04T04:07:23.320Z,98478.25
2019-03-04T04:09:53.441Z,98475.83
2019-03-04T04:12:23.537Z,98469.13
2019-03-04T04:14:53.638Z,98468.28
2019-03-04T04:17:23.749Z,98465.45
2019-03-04T04:19:53.873Z,98458.97
2019-03-04T04:22:43.376Z,98460.19
2019-03-04T04:25:13.665Z,98454.30
2019-03-04T04:27:45.401Z,98448.86
2019-03-04T04:32:56.843Z,98448.19
2019-03-04T04:38:16.009Z,98435.52
2019-03-04T04:40:46.181Z,98438.37
2019-03-04T04:43:16.226Z,98428.96
2019-03-04T04:45:47.952Z,98424.14
2019-03-04T04:48:18.072Z,98430.17
2019-03-04T04:50:48.184Z,98419.80
2019-03-04T04:53:18.327Z,98420.20
2019-03-04T04:55:48.407Z,98416.03
2019-03-04T04:58:18.521Z,98408.90
2019-03-04T05:00:48.724Z,98411.19
2019-03-04T05:03:18.871Z,98412.39
2019-03-04T05:05:48.985Z,98401.69
2019-03-04T05:08:19.132Z,98400.31
2019-03-04T05:10:49.249Z,98398.64
2019-03-04T05:13:19.358Z,98386.41
2019-03-04T05:15:49.458Z,98393.03
2019-03-04T05:21:18.100Z,98382.55
2019-03-04T05:23:55.830Z,98386.13
2019-03-04T05:26:25.956Z,98377.70
2019-03-04T05:29:08.043Z,98373.12
2019-03-04T05:31:38.276Z,98373.82
2019-03-04T05:34:08.370Z,98370.11
2019-03-04T05:36:38.484Z,98364.95
2019-03-04T05:39:08.612Z,98360.75
2019-03-04T05:41:39.006Z,98353.42
2019-03-04T05:47:06.235Z,98355.68
2019-03-04T05:49:36.435Z,98353.27
2019-03-04T05:52:06.576Z,98342.78
2019-03-04T05:54:37.152Z,98340.86
2019-03-04T05:57:07.241Z,98340.25
2019-03-04T05:59:37.413Z,98331.84
2019-03-04T06:02:09.789Z,98327.53
2019-03-04T06:10:51.500Z,98318.70
2019-03-04T06:13:21.696Z,98312.22
2019-03-04T06:15:51.818Z,98304.00
2019-03-04T06:18:21.938Z,98304.96
2019-03-04T06:20:52.157Z,98300.19
2019-03-04T06:23:22.244Z,98298.87
2019-03-04T06:26:11.441Z,98297.92
2019-03-04T06:28:41.828Z,98290.51
2019-03-04T06:31:11.972Z,98289.20
2019-03-04T06:33:42.093Z,98274.25
2019-03-04T06:36:24.354Z,98281.00
2019-03-04T06:38:54.511Z,98274.13
2019-03-04T06:41:24.739Z,98267.63
2019-03-04T06:44:05.785Z,98264.61
2019-03-04T06:46:35.989Z,98261.98
2019-03-04T06:49:34.461Z,98257.03
2019-03-04T06:52:05.100Z,98254.62
2019-03-04T06:55:13.468Z,98252.92
2019-03-04T06:57:49.587Z,98250.16
2019-03-04T07:00:57.869Z,98247.03
2019-03-04T07:03:51.897Z,98247.14
2019-03-04T07:06:23.716Z,98237.63
2019-03-04T07:09:14.880Z,98236.42
2019-03-04T07:11:55.542Z,98231.23
2019-03-04T07:14:27.330Z,98234.33
2019-03-04T07:17:01.201Z,98237.11
2019-03-04T07:19:42.561Z,98232.20
2019-03-04T07:22:31.850Z,98230.97
2019-03-04T07:28:04.370Z,98230.60
2019-03-04T07:39:27.057Z,98212.42
2019-03-04T07:47:42.405Z,98205.11
2019-03-04T07:50:12.677Z,98197.52
2019-03-04T07:52:42.781Z,98200.29
2019-03-04T07:55:12.939Z,98196.91
2019-03-04T07:57:43.262Z,98191.01
2019-03-04T08:00:13.610Z,98192.97
2019-03-04T08:02:43.783Z,98198.27
2019-03-04T08:11:43.300Z,98203.66
2019-03-04T08:14:13.434Z,98200.03
2019-03-04T08:16:43.529Z,98200.05
2019-03-04T08:19:13.635Z,98193.74
2019-03-04T08:21:43.745Z,98199.16
2019-03-04T08:24:13.889Z,98201.81
2019-03-04T08:26:43.982Z,98190.73
2019-03-04T08:29:25.700Z,98193.38
2019-03-04T08:31:55.814Z,98187.25
2019-03-04T08:34:31.021Z,98176.44
2019-03-04T08:37:03.410Z,98179.06
2019-03-04T08:39:33.515Z,98178.59
2019-03-04T08:42:03.627Z,98166.91
2019-03-04T08:44:33.797Z,98165.95
2019-03-04T08:47:03.953Z,98160.39
2019-03-04T08:49:34.089Z,98151.22
2019-03-04T08:55:16.968Z,98146.65
2019-03-04T08:57:47.143Z,98140.13
2019-03-04T09:03:20.831Z,98121.94
2019-03-04T09:05:50.974Z,98119.37
2019-03-04T09:11:21.573Z,98118.36
2019-03-04T09:13:54.684Z,98109.78
2019-03-04T09:16:24.831Z,98108.92
2019-03-04T09:18:55.036Z,98105.40
2019-03-04T09:21:25.152Z,98109.53
2019-03-04T09:24:06.807Z,98100.12
2019-03-04T09:26:48.927Z,98091.19
2019-03-04T09:29:19.029Z,98080.51
2019-03-04T09:31:49.152Z,98080.37
2019-03-04T09:34:19.256Z,98076.66
2019-03-04T09:36:49.345Z,98060.95
2019-03-04T09:39:19.446Z,98059.37
2019-03-04T09:44:45.535Z,98060.53
2019-03-04T09:47:15.677Z,98057.03
2019-03-04T09:49:45.790Z,98030.27
2019-03-04T09:52:15.901Z,98043.84
2019-03-04T09:54:46.078Z,98033.62
2019-03-04T09:57:16.220Z,98031.90
2019-03-04T09:59:47.044Z,98030.30
2019-03-04T10:02:32.231Z,98023.41
2019-03-04T10:05:40.418Z,98021.55
2019-03-04T10:08:35.414Z,98012.37
2019-03-04T10:11:43.725Z,98006.80
2019-03-04T10:14:53.813Z,97998.79
2019-03-04T10:18:02.133Z,97986.22
2019-03-04T10:20:44.390Z,97984.95
2019-03-04T10:23:37.532Z,97985.66
2019-03-04T10:26:45.782Z,97979.36
2019-03-04T10:29:53.962Z,97977.41
2019-03-04T10:33:02.148Z,97972.51
2019-03-04T10:36:10.341Z,97974.19
2019-03-04T10:39:22.411Z,97972.10
2019-03-04T10:42:33.734Z,97960.77
2019-03-04T10:45:26.929Z,97952.66
2019-03-04T10:47:57.033Z,97952.09
2019-03-04T10:53:08.868Z,97936.97
2019-03-04T10:55:42.259Z,97931.60
2019-03-04T10:58:29.950Z,97915.80
2019-03-04T11:03:42.366Z,97920.69
2019-03-04T11:06:12.509Z,97902.47
2019-03-04T11:08:42.596Z,97895.55
2019-03-04T11:11:12.690Z,97891.47
2019-03-04T11:13:42.787Z,97890.87
2019-03-04T11:16:12.883Z,97887.72
2019-03-04T11:18:43.001Z,97885.25
2019-03-04T11:21:13.094Z,97881.49
2019-03-04T11:23:43.204Z,97871.06
2019-03-04T11:26:13.314Z,97876.03
2019-03-04T11:28:43.475Z,97876.95
2019-03-04T11:31:13.594Z,97872.91
2019-03-04T11:33:43.708Z,97873.94
2019-03-04T11:36:16.866Z,97874.29
2019-03-04T11:38:51.135Z,97873.59
2019-03-04T11:41:36.148Z,97864.76
2019-03-04T11:44:13.910Z,97863.78
2019-03-04T11:46:44.085Z,97851.91
2019-03-04T11:49:14.350Z,97856.44
2019-03-04T11:54:59.418Z,97840.31
2019-03-04T11:57:48.694Z,97829.42
2019-03-04T12:00:41.027Z,97823.60
2019-03-04T12:03:11.259Z,97813.75
2019-03-04T12:05:43.281Z,97809.86
2019-03-04T12:08:32.593Z,97804.55
2019-03-04T12:11:02.772Z,97804.12
2019-03-04T12:13:32.900Z,97793.64
2019-03-04T12:18:55.387Z,97785.12
2019-03-04T12:21:25.498Z,97784.83
2019-03-04T12:23:55.614Z,97781.67
2019-03-04T12:26:25.870Z,97775.81
2019-03-04T12:28:57.621Z,97782.59
2019-03-04T12:34:39.125Z,97765.13
2019-03-04T12:37:09.261Z,97761.42
2019-03-04T12:39:39.382Z,97753.18
2019-03-04T12:42:09.497Z,97745.56
2019-03-04T12:44:39.592Z,97743.53
2019-03-04T12:47:09.721Z,97732.70
2019-03-04T12:49:39.840Z,97725.20
2019-03-04T12:52:09.938Z,97720.27
2019-03-04T12:54:40.050Z,97716.74
2019-03-04T12:57:10.142Z,97707.73
2019-03-04T12:59:40.272Z,97699.77
2019-03-04T13:02:10.331Z,97705.56
2019-03-04T13:04:42.206Z,97693.13
2019-03-04T13:07:12.258Z,97683.42
2019-03-04T13:10:02.856Z,97684.39
2019-03-04T13:12:35.004Z,97678.11
2019-03-04T13:15:08.568Z,97680.62
2019-03-04T13:17:57.937Z,97677.05
2019-03-04T13:20:28.122Z,97677.16
2019-03-04T13:23:17.298Z,97675.23
2019-03-04T13:25:47.474Z,97670.64
2019-03-04T13:28:17.609Z,97659.56
2019-03-04T13:30:47.712Z,97651.92
2019-03-04T13:33:17.836Z,97639.36
2019-03-04T13:35:48.016Z,97631.57
2019-03-04T13:38:18.163Z,97619.77
2019-03-04T13:40:59.486Z,97613.14
2019-03-04T13:43:29.633Z,97610.73
2019-03-04T13:45:59.690Z,97606.16
2019-03-04T13:48:29.801Z,97608.67
2019-03-04T13:50:59.917Z,97596.59
2019-03-04T13:53:30.033Z,97597.84
2019-03-04T13:56:00.156Z,97591.17
2019-03-04T13:58:42.291Z,97590.05
2019-03-04T14:01:12.396Z,97578.16
2019-03-04T14:03:42.494Z,97579.55
2019-03-04T14:06:12.615Z,97565.18
2019-03-04T14:08:42.731Z,97564.20
2019-03-04T14:11:13.231Z,97565.05
2019-03-04T14:14:02.491Z,97564.64
2019-03-04T14:16:32.606Z,97564.84
2019-03-04T14:19:02.712Z,97555.69
2019-03-04T14:21:35.278Z,97549.32
2019-03-04T14:24:24.529Z,97548.84
2019-03-04T14:26:54.633Z,97541.92
2019-03-04T14:29:26.391Z,97541.38
2019-03-04T14:31:56.510Z,97533.55
2019-03-04T14:34:26.668Z,97528.88
2019-03-04T14:36:56.811Z,97520.62
2019-03-04T14:39:46.131Z,97513.79
2019-03-04T14:42:27.917Z,97510.58
2019-03-04T14:45:10.088Z,97511.09
2019-03-04T14:47:42.619Z,97508.72
2019-03-04T14:53:18.765Z,97487.72
2019-03-04T14:55:49.130Z,97487.72
2019-03-04T14:58:35.514Z,97478.44
2019-03-04T15:01:26.160Z,97469.41
2019-03-04T15:03:56.506Z,97455.95
2019-03-04T15:06:26.797Z,97455.45
2019-03-04T15:08:56.939Z,97456.05
2019-03-04T15:11:27.125Z,97456.02
2019-03-04T15:13:57.305Z,97454.20
2019-03-04T15:16:27.526Z,97456.37
2019-03-04T15:18:57.949Z,97443.94
2019-03-04T15:21:28.154Z,97444.89
2019-03-04T15:23:58.429Z,97447.89
2019-03-04T15:26:47.872Z,97442.47
2019-03-04T15:29:18.167Z,97442.53
2019-03-04T15:35:16.284Z,97439.80
2019-03-04T15:40:42.307Z,97431.78
2019-03-04T15:43:12.482Z,97421.66
2019-03-04T15:48:39.417Z,97408.83
2019-03-04T15:51:15.857Z,97410.16
2019-03-04T15:53:46.086Z,97408.73
2019-03-04T15:56:16.177Z,97413.00
2019-03-04T15:58:46.693Z,97401.53
2019-03-04T16:01:20.699Z,97405.86
2019-03-04T16:03:53.231Z,97399.31
2019-03-04T16:06:28.453Z,97396.89
2019-03-04T16:08:58.837Z,97393.11
2019-03-04T16:11:29.242Z,97386.14
2019-03-04T16:13:59.739Z,97387.11
2019-03-04T16:16:29.843Z,97386.72
2019-03-04T16:19:00.025Z,97375.81
2019-03-04T16:21:30.226Z,97375.06
2019-03-04T16:24:00.499Z,97368.09
2019-03-04T16:26:30.642Z,97361.46
2019-03-04T16:29:00.878Z,97358.95
2019-03-04T16:31:31.078Z,97354.40
2019-03-04T16:34:01.261Z,97354.20
2019-03-04T16:36:31.372Z,97349.09
2019-03-04T16:39:03.790Z,97344.28
2019-03-04T16:42:04.528Z,97328.66
2019-03-04T16:47:18.252Z,97323.06
2019-03-04T16:52:31.417Z,97315.48
2019-03-04T16:55:01.594Z,97314.36
2019-03-04T16:57:50.880Z,97303.91
2019-03-04T17:00:40.170Z,97311.37
2019-03-04T17:03:29.411Z,97310.05
2019-03-04T17:05:59.631Z,97302.72
2019-03-04T17:08:31.430Z,97293.64
2019-03-04T17:11:01.641Z,97296.54
2019-03-04T17:13:31.810Z,97294.23
2019-03-04T17:16:13.505Z,97283.38
2019-03-04T17:18:43.771Z,97283.09
2019-03-04T17:21:13.974Z,97275.94
2019-03-04T17:23:44.145Z,97267.20
2019-03-04T17:26:38.166Z,97269.89
2019-03-04T17:29:11.031Z,97260.41
2019-03-04T17:31:43.888Z,97254.91
2019-03-04T17:34:16.093Z,97251.36
2019-03-04T17:36:46.219Z,97248.37
2019-03-04T17:39:35.321Z,97245.55
2019-03-04T17:45:00.306Z,97241.72
2019-03-04T17:47:30.451Z,97230.91
2019-03-04T17:50:00.627Z,97227.81
2019-03-04T17:52:30.854Z,97227.28
2019-03-04T17:55:00.981Z,97222.58
2019-03-04T17:57:31.168Z,97215.88
2019-03-04T18:05:45.856Z,97215.27
2019-03-04T18:08:16.013Z,97215.65
2019-03-04T18:10:46.129Z,97211.89
2019-03-04T18:13:16.465Z,97200.38
2019-03-04T18:16:05.653Z,97199.38
2019-03-04T18:21:31.346Z,97182.59
2019-03-04T18:24:22.928Z,97183.38
2019-03-04T18:27:25.612Z,97179.74
2019-03-04T18:30:13.169Z,97171.06
2019-03-04T18:33:27.096Z,97170.91
2019-03-04T18:36:35.625Z,97163.98
2019-03-04T18:39:28.194Z,97158.78
2019-03-04T18:42:23.150Z,97156.52
2019-03-04T18:45:12.818Z,97160.20
2019-03-04T18:48:21.294Z,97169.70
2019-03-04T18:51:12.391Z,97168.26
2019-03-04T18:57:05.081Z,97176.02
2019-03-04T18:59:35.263Z,97172.39
2019-03-04T19:05:27.891Z,97176.32
2019-03-04T19:07:50.106Z,97161.88
2019-03-04T19:10:21.128Z,97161.67
2019-03-04T19:12:51.897Z,97158.37
2019-03-04T19:15:22.660Z,97164.52
2019-03-04T19:17:53.299Z,97157.65
2019-03-04T19:20:29.080Z,97157.27
2019-03-04T19:26:01.550Z,97146.51
2019-03-04T19:28:52.966Z,97152.69
2019-03-04T19:32:07.074Z,97145.18
2019-03-04T19:37:20.048Z,97151.81
2019-03-04T19:39:50.171Z,97144.50
2019-03-04T19:42:20.286Z,97150.83
2019-03-04T19:44:50.383Z,97143.36
2019-03-04T19:47:20.609Z,97133.48
2019-03-04T19:49:50.765Z,97133.74
2019-03-04T19:52:20.904Z,97134.80
2019-03-04T19:57:45.961Z,97140.83
2019-03-04T20:00:37.067Z,97141.55
2019-03-04T20:03:07.472Z,97142.23
2019-03-04T20:05:37.681Z,97142.37
2019-03-04T20:08:07.904Z,97143.06
2019-03-04T20:10:38.229Z,97145.67
2019-03-04T20:13:08.403Z,97155.34
2019-03-04T20:15:38.675Z,97159.73
2019-03-04T20:18:08.940Z,97156.28
2019-03-04T20:20:59.831Z,97158.59
2019-03-04T20:23:30.602Z,97170.18
2019-03-04T20:26:01.500Z,97170.33
2019-03-04T20:28:33.410Z,97175.08
2019-03-04T20:34:24.496Z,97189.52
2019-03-04T20:51:45.122Z,97102.92
2019-03-04T20:54:15.738Z,97188.47
2019-03-04T20:59:55.712Z,97198.16
2019-03-04T21:05:17.870Z,97200.56
2019-03-04T21:07:49.133Z,97202.57
2019-03-04T21:10:20.087Z,97200.02
2019-03-04T21:13:35.024Z,97208.66
2019-03-04T21:16:01.045Z,97214.59
2019-03-04T21:18:50.547Z,97216.02
2019-03-04T21:21:26.327Z,97218.81
2019-03-04T21:23:56.547Z,97216.51
2019-03-04T21:26:32.835Z,97224.75
2019-03-04T21:29:42.126Z,97225.25
2019-03-04T21:32:50.822Z,97223.87
2019-03-04T21:38:34.061Z,97226.11
2019-03-04T21:41:43.340Z,97225.08
2019-03-04T21:44:51.737Z,97230.61
2019-03-04T21:47:44.434Z,97238.23
2019-03-04T21:53:33.093Z,97246.92
2019-03-04T21:56:26.565Z,97250.20
2019-03-04T21:58:56.735Z,97255.98
2019-03-04T22:01:51.201Z,97260.25
2019-03-04T22:04:21.392Z,97263.91
2019-03-04T22:06:51.525Z,97265.02
2019-03-04T22:09:40.799Z,97268.09
2019-03-04T22:12:14.176Z,97267.94
2019-03-04T22:14:45.995Z,97276.93
2019-03-04T22:20:00.792Z,97275.95
2019-03-04T22:23:09.449Z,97285.20
2019-03-04T22:25:40.137Z,97286.48
2019-03-04T22:28:10.850Z,97287.73
2019-03-04T22:31:01.522Z,97287.02
2019-03-04T22:33:33.208Z,97287.73
2019-03-04T22:36:05.881Z,97291.56
2019-03-04T22:38:36.003Z,97294.48
2019-03-04T22:41:06.128Z,97300.52
2019-03-04T22:43:36.223Z,97297.39
2019-03-04T22:46:06.325Z,97300.80
2019-03-04T22:48:36.535Z,97305.54
2019-03-04T22:51:06.629Z,97307.21
2019-03-04T22:53:36.707Z,97311.37
2019-03-04T22:56:06.864Z,97313.67
2019-03-04T22:58:36.935Z,97321.78
2019-03-04T23:01:40.321Z,97318.17
2019-03-04T23:04:31.157Z,97313.31
2019-03-04T23:07:22.139Z,97321.66
2019-03-04T23:10:30.562Z,97325.80
2019-03-04T23:13:38.995Z,97321.62
2019-03-04T23:18:53.821Z,97348.30
2019-03-04T23:21:23.928Z,97334.02
2019-03-04T23:23:54.040Z,97336.88
2019-03-04T23:26:24.201Z,97344.55
2019-03-04T23:28:54.291Z,97345.30
2019-03-04T23:31:24.429Z,97345.77
2019-03-04T23:36:36.370Z,97357.11
2019-03-04T23:39:27.701Z,97358.30
2019-03-04T23:41:58.212Z,97366.27
2019-03-04T23:44:28.718Z,97365.22
2019-03-04T23:46:59.254Z,97366.19
2019-03-04T23:49:29.694Z,97369.09
2019-03-04T23:52:00.221Z,97375.70
2019-03-04T23:54:30.597Z,97379.48
2019-03-04T23:57:01.018Z,97379.36
2019-03-04T23:59:31.417Z,97381.91
